createdAt,value
2022-12-03T00:00:16.390Z,17.80
2022-12-03T00:02:46.904Z,17.80
2022-12-03T00:05:15.108Z,17.80
2022-12-03T00:07:43.119Z,17.80
2022-12-03T00:10:12.110Z,17.70
2022-12-03T00:12:40.034Z,17.80
2022-12-03T00:15:09.373Z,17.50
2022-12-03T00:17:38.884Z,17.50
2022-12-03T00:20:08.356Z,17.20
2022-12-03T00:22:36.373Z,17.00
2022-12-03T00:25:04.642Z,16.80
2022-12-03T00:27:32.666Z,16.90
2022-12-03T00:30:00.831Z,17.10
2022-12-03T00:32:28.796Z,17.30
2022-12-03T00:34:58.122Z,17.40
2022-12-03T00:37:26.809Z,17.50
2022-12-03T00:39:54.809Z,17.60
2022-12-03T00:42:22.784Z,17.70
2022-12-03T00:44:51.185Z,17.90
2022-12-03T00:47:19.404Z,18.00
2022-12-03T00:49:47.408Z,18.00
2022-12-03T00:52:16.687Z,18.10
2022-12-03T00:54:44.632Z,17.80
2022-12-03T00:57:12.629Z,17.90
2022-12-03T00:59:42.159Z,17.70
2022-12-03T01:02:10.174Z,17.60
2022-12-03T01:04:38.213Z,17.50
2022-12-03T01:07:06.294Z,17.60
2022-12-03T01:09:35.703Z,17.70
2022-12-03T01:12:03.716Z,17.70
2022-12-03T01:14:31.665Z,17.30
2022-12-03T01:16:59.988Z,17.20
2022-12-03T01:19:28.005Z,17.20
2022-12-03T01:21:56.863Z,16.70
2022-12-03T01:24:24.842Z,16.40
2022-12-03T01:26:55.753Z,16.20
2022-12-03T01:29:23.731Z,16.30
2022-12-03T01:32:09.493Z,16.40
2022-12-03T01:34:37.676Z,16.40
2022-12-03T01:37:05.623Z,16.60
2022-12-03T01:39:33.557Z,16.60
2022-12-03T01:42:04.121Z,16.60
2022-12-03T01:44:33.794Z,16.80
2022-12-03T01:47:04.150Z,16.20
2022-12-03T01:49:40.137Z,16.40
2022-12-03T01:52:13.365Z,16.40
2022-12-03T01:54:43.878Z,16.10
2022-12-03T01:57:22.533Z,16.10
2022-12-03T01:59:51.223Z,15.90
2022-12-03T02:02:24.199Z,16.00
2022-12-03T02:04:54.208Z,16.10
2022-12-03T02:07:26.201Z,16.20
2022-12-03T02:09:55.999Z,16.10
2022-12-03T02:12:30.442Z,16.20
2022-12-03T02:14:58.981Z,16.40
2022-12-03T02:17:27.467Z,16.50
2022-12-03T02:19:56.132Z,16.70
2022-12-03T02:22:35.189Z,17.00
2022-12-03T02:25:20.287Z,17.20
2022-12-03T02:27:49.563Z,17.40
2022-12-03T02:30:20.408Z,17.50
2022-12-03T02:32:48.714Z,17.60
2022-12-03T02:35:18.649Z,17.50
2022-12-03T02:37:48.405Z,17.50
2022-12-03T02:40:21.122Z,17.40
2022-12-03T02:42:50.332Z,17.40
2022-12-03T02:45:21.822Z,17.00
2022-12-03T02:47:55.639Z,16.70
2022-12-03T02:50:27.422Z,16.90
2022-12-03T02:52:58.314Z,16.80
2022-12-03T02:55:36.352Z,16.80
2022-12-03T02:58:06.406Z,16.40
2022-12-03T03:00:35.402Z,16.70
2022-12-03T03:03:05.205Z,17.00
2022-12-03T03:05:36.054Z,17.00
2022-12-03T03:08:04.766Z,16.90
2022-12-03T03:10:35.276Z,16.50
2022-12-03T03:13:06.206Z,16.60
2022-12-03T03:15:34.174Z,16.90
2022-12-03T03:18:02.122Z,16.70
2022-12-03T03:20:30.187Z,16.80
2022-12-03T03:23:06.881Z,17.00
2022-12-03T03:25:36.316Z,16.90
2022-12-03T03:28:04.943Z,17.10
2022-12-03T03:30:33.562Z,17.00
2022-12-03T03:33:01.914Z,16.90
2022-12-03T03:35:29.927Z,16.70
2022-12-03T03:37:59.159Z,16.20
2022-12-03T03:40:27.912Z,16.20
2022-12-03T03:42:58.190Z,16.10
2022-12-03T03:45:29.377Z,16.30
2022-12-03T03:47:58.442Z,16.50
2022-12-03T03:50:27.893Z,16.60
2022-12-03T03:52:56.454Z,16.80
2022-12-03T03:55:24.690Z,16.90
2022-12-03T03:57:52.805Z,16.90
2022-12-03T04:00:22.602Z,16.80
2022-12-03T04:02:52.120Z,16.90
2022-12-03T04:05:24.636Z,16.50
2022-12-03T04:07:52.984Z,16.40
2022-12-03T04:10:38.591Z,16.30
2022-12-03T04:13:06.983Z,16.50
2022-12-03T04:15:36.344Z,16.70
2022-12-03T04:18:22.437Z,16.80
2022-12-03T04:20:50.441Z,16.90
2022-12-03T04:23:17.428Z,16.50
2022-12-03T04:26:02.765Z,16.40
2022-12-03T04:28:48.218Z,16.60
2022-12-03T04:31:35.122Z,16.60
2022-12-03T04:34:20.602Z,16.60
2022-12-03T04:36:48.610Z,16.50
2022-12-03T04:39:16.596Z,16.60
2022-12-03T04:41:44.616Z,16.80
2022-12-03T04:44:30.413Z,16.90
2022-12-03T04:46:59.705Z,16.70
2022-12-03T04:49:27.714Z,16.60
2022-12-03T04:51:55.767Z,16.70
2022-12-03T04:54:23.818Z,16.50
2022-12-03T04:56:51.809Z,16.90
2022-12-03T04:59:20.057Z,17.10
2022-12-03T05:01:48.551Z,17.00
2022-12-03T05:04:18.040Z,16.90
2022-12-03T05:06:48.136Z,17.10
2022-12-03T05:09:16.063Z,17.20
2022-12-03T05:11:44.206Z,17.30
2022-12-03T05:14:12.432Z,17.40
2022-12-03T05:16:40.703Z,17.20
2022-12-03T05:19:09.883Z,16.70
2022-12-03T05:21:38.184Z,16.30
2022-12-03T05:24:07.001Z,16.00
2022-12-03T05:26:35.016Z,15.80
2022-12-03T05:29:03.169Z,15.70
2022-12-03T05:31:31.260Z,15.60
2022-12-03T05:33:59.584Z,15.80
2022-12-03T05:36:27.518Z,16.10
2022-12-03T05:38:56.844Z,16.00
2022-12-03T05:41:42.421Z,16.20
2022-12-03T05:44:10.378Z,16.30
2022-12-03T05:46:38.370Z,16.10
2022-12-03T05:49:06.659Z,16.20
2022-12-03T05:51:34.628Z,16.20
2022-12-03T05:54:03.947Z,16.40
2022-12-03T05:56:31.949Z,16.30
2022-12-03T05:58:59.886Z,15.80
2022-12-03T06:01:27.885Z,15.50
2022-12-03T06:03:56.129Z,15.80
2022-12-03T06:06:24.245Z,16.10
2022-12-03T06:08:52.256Z,16.40
2022-12-03T06:11:21.558Z,16.70
2022-12-03T06:13:49.567Z,17.00
2022-12-03T06:16:17.555Z,16.80
2022-12-03T06:18:45.537Z,16.50
2022-12-03T06:21:13.497Z,15.90
2022-12-03T06:23:44.654Z,15.80
2022-12-03T06:26:15.317Z,15.50
2022-12-03T06:28:46.423Z,15.50
2022-12-03T06:31:14.676Z,15.50
2022-12-03T06:33:42.711Z,15.10
2022-12-03T06:36:10.755Z,14.90
2022-12-03T06:38:38.714Z,15.10
2022-12-03T06:41:06.853Z,14.70
2022-12-03T06:43:34.817Z,14.60
2022-12-03T06:46:04.247Z,14.40
2022-12-03T06:48:32.362Z,14.20
2022-12-03T06:51:00.317Z,14.40
2022-12-03T06:53:28.250Z,14.70
2022-12-03T06:55:56.545Z,15.30
2022-12-03T06:58:24.485Z,15.40
2022-12-03T07:00:52.451Z,15.70
2022-12-03T07:03:21.855Z,16.10
2022-12-03T07:05:49.822Z,16.50
2022-12-03T07:08:17.929Z,16.70
2022-12-03T07:10:45.930Z,16.60
2022-12-03T07:13:13.966Z,16.50
2022-12-03T07:15:41.931Z,16.10
2022-12-03T07:18:09.985Z,16.10
2022-12-03T07:20:39.402Z,16.00
2022-12-03T07:23:07.471Z,16.50
2022-12-03T07:25:35.653Z,16.80
2022-12-03T07:28:03.754Z,17.00
2022-12-03T07:30:31.729Z,16.90
2022-12-03T07:33:00.559Z,16.80
2022-12-03T07:35:28.510Z,16.90
2022-12-03T07:37:57.789Z,16.70
2022-12-03T07:40:25.727Z,16.70
2022-12-03T07:42:53.661Z,16.70
2022-12-03T07:45:21.619Z,16.90
2022-12-03T07:47:49.550Z,16.90
2022-12-03T07:50:17.855Z,16.80
2022-12-03T07:52:45.799Z,16.30
2022-12-03T07:55:16.320Z,16.40
2022-12-03T07:57:44.556Z,16.30
2022-12-03T08:00:13.618Z,16.70
2022-12-03T08:02:41.656Z,16.50
2022-12-03T08:05:09.918Z,16.60
2022-12-03T08:07:37.899Z,16.90
2022-12-03T08:10:07.074Z,17.10
2022-12-03T08:12:42.722Z,17.30
2022-12-03T08:15:16.194Z,17.30
2022-12-03T08:17:45.809Z,17.10
2022-12-03T08:20:16.467Z,17.20
2022-12-03T08:22:45.856Z,17.30
2022-12-03T08:25:22.520Z,17.40
2022-12-03T08:27:54.848Z,17.30
2022-12-03T08:30:23.049Z,17.30
2022-12-03T08:32:51.976Z,17.20
2022-12-03T08:35:24.834Z,17.10
2022-12-03T08:38:00.206Z,17.20
2022-12-03T08:40:35.532Z,17.50
2022-12-03T08:43:13.673Z,17.20
2022-12-03T08:45:43.317Z,17.50
2022-12-03T08:48:43.962Z,17.70
2022-12-03T08:51:23.800Z,17.70
2022-12-03T08:53:59.767Z,17.90
2022-12-03T08:56:31.006Z,17.60
2022-12-03T08:59:03.097Z,17.40
2022-12-03T09:01:38.932Z,17.60
2022-12-03T09:04:21.227Z,17.30
2022-12-03T09:06:49.289Z,17.40
2022-12-03T09:09:17.726Z,17.40
2022-12-03T09:11:46.101Z,17.50
2022-12-03T09:14:21.072Z,17.40
2022-12-03T09:16:49.678Z,17.40
2022-12-03T09:19:17.740Z,17.60
2022-12-03T09:21:45.690Z,17.70
2022-12-03T09:24:13.918Z,17.90
2022-12-03T09:26:41.898Z,17.80
2022-12-03T09:29:12.465Z,17.90
2022-12-03T09:31:42.619Z,18.00
2022-12-03T09:34:14.008Z,18.10
2022-12-03T09:36:41.962Z,17.90
2022-12-03T09:39:09.937Z,17.90
2022-12-03T09:41:38.049Z,18.10
2022-12-03T09:44:08.601Z,18.00
2022-12-03T09:46:40.572Z,18.20
2022-12-03T09:49:15.943Z,17.80
2022-12-03T09:51:45.920Z,17.70
2022-12-03T09:54:23.491Z,17.80
2022-12-03T09:56:51.854Z,18.00
2022-12-03T09:59:20.293Z,17.80
2022-12-03T10:01:48.441Z,18.00
2022-12-03T10:04:18.766Z,17.80
2022-12-03T10:06:46.891Z,18.00
2022-12-03T10:09:18.152Z,18.00
2022-12-03T10:11:46.132Z,17.80
2022-12-03T10:14:17.573Z,17.80
2022-12-03T10:16:46.100Z,17.90
2022-12-03T10:19:22.894Z,18.00
2022-12-03T10:21:51.448Z,18.20
2022-12-03T10:24:22.625Z,18.30
2022-12-03T10:26:52.058Z,17.90
2022-12-03T10:29:31.365Z,17.70
2022-12-03T10:32:03.695Z,17.40
2022-12-03T10:34:35.842Z,17.40
2022-12-03T10:37:17.836Z,17.50
2022-12-03T10:40:01.132Z,17.70
2022-12-03T10:42:35.580Z,17.90
2022-12-03T10:45:24.723Z,18.20
2022-12-03T10:48:06.557Z,18.40
2022-12-03T10:50:36.193Z,18.60
2022-12-03T10:53:04.265Z,18.80
2022-12-03T10:55:37.788Z,18.90
2022-12-03T10:58:05.730Z,19.00
2022-12-03T11:00:33.699Z,18.90
2022-12-03T11:03:01.709Z,18.70
2022-12-03T11:05:29.757Z,18.70
2022-12-03T11:07:59.150Z,18.50
2022-12-03T11:10:27.157Z,18.50
2022-12-03T11:13:46.395Z,18.60
2022-12-03T11:16:15.980Z,18.80
2022-12-03T11:19:03.745Z,18.70
2022-12-03T11:21:32.267Z,18.70
2022-12-03T11:24:20.989Z,18.80
2022-12-03T11:27:16.065Z,18.90
2022-12-03T11:29:52.092Z,18.20
2022-12-03T11:33:08.722Z,17.60
2022-12-03T11:35:39.022Z,17.50
2022-12-03T11:38:52.221Z,17.60
2022-12-03T11:41:25.104Z,17.50
2022-12-03T11:44:21.503Z,17.50
2022-12-03T11:46:49.741Z,17.60
2022-12-03T11:49:35.517Z,17.10
2022-12-03T11:52:13.076Z,17.30
2022-12-03T11:54:41.070Z,16.90
2022-12-03T11:57:36.281Z,17.10
2022-12-03T12:00:15.051Z,17.20
2022-12-03T12:02:43.157Z,17.00
2022-12-03T12:05:26.547Z,16.90
2022-12-03T12:07:54.995Z,17.00
2022-12-03T12:10:42.630Z,16.60
2022-12-03T12:13:52.730Z,16.60
2022-12-03T12:16:42.652Z,16.50
2022-12-03T12:19:45.076Z,16.70
2022-12-03T12:22:29.589Z,16.80
2022-12-03T12:24:58.989Z,17.10
2022-12-03T12:27:37.766Z,17.10
2022-12-03T12:30:10.747Z,17.10
2022-12-03T12:32:45.685Z,17.20
2022-12-03T12:35:19.649Z,17.50
2022-12-03T12:37:59.086Z,17.60
2022-12-03T12:40:30.497Z,17.80
2022-12-03T12:42:59.945Z,18.00
2022-12-03T12:45:30.702Z,18.00
2022-12-03T12:48:06.510Z,17.90
2022-12-03T12:50:34.922Z,17.80
2022-12-03T12:53:09.234Z,17.60
2022-12-03T12:55:37.734Z,17.60
2022-12-03T12:58:12.310Z,17.60
2022-12-03T13:00:59.494Z,17.30
2022-12-03T13:03:33.929Z,17.50
2022-12-03T13:06:03.462Z,17.80
2022-12-03T13:08:38.953Z,17.90
2022-12-03T13:11:12.987Z,18.10
2022-12-03T13:13:44.212Z,18.10
2022-12-03T13:16:21.030Z,18.20
2022-12-03T13:18:50.470Z,17.90
2022-12-03T13:21:24.297Z,17.90
2022-12-03T13:23:54.805Z,17.80
2022-12-03T13:26:38.770Z,17.30
2022-12-03T13:29:12.788Z,16.90
2022-12-03T13:31:45.934Z,17.20
2022-12-03T13:34:19.586Z,16.90
2022-12-03T13:36:55.463Z,16.80
2022-12-03T13:39:30.282Z,16.80
2022-12-03T13:42:19.279Z,16.40
2022-12-03T13:44:50.645Z,16.80
2022-12-03T13:47:23.378Z,17.10
2022-12-03T13:49:54.399Z,16.70
2022-12-03T13:52:25.001Z,16.60
2022-12-03T13:54:55.043Z,16.90
2022-12-03T13:57:23.502Z,17.10
2022-12-03T13:59:51.810Z,17.30
2022-12-03T14:02:21.566Z,17.00
2022-12-03T14:04:49.626Z,17.10
2022-12-03T14:07:18.061Z,17.00
2022-12-03T14:09:46.089Z,17.40
2022-12-03T14:12:33.597Z,17.60
2022-12-03T14:15:01.807Z,17.70
2022-12-03T14:17:31.847Z,17.50
2022-12-03T14:20:00.890Z,17.00
2022-12-03T14:22:31.786Z,16.90
2022-12-03T14:24:59.768Z,16.70
2022-12-03T14:27:28.343Z,16.80
2022-12-03T14:29:56.799Z,16.70
2022-12-03T14:32:25.211Z,16.50
2022-12-03T14:34:54.489Z,16.60
2022-12-03T14:37:22.434Z,16.40
2022-12-03T14:39:50.416Z,16.40
2022-12-03T14:42:18.249Z,16.40
2022-12-03T14:44:47.673Z,16.30
2022-12-03T14:47:17.433Z,16.30
2022-12-03T14:49:45.786Z,16.00
2022-12-03T14:52:15.175Z,15.60
2022-12-03T14:54:43.730Z,15.90
2022-12-03T14:57:12.633Z,16.00
2022-12-03T14:59:41.669Z,16.30
2022-12-03T15:02:10.708Z,16.20
2022-12-03T15:04:41.805Z,16.10
2022-12-03T15:07:10.108Z,16.00
2022-12-03T15:09:39.435Z,15.60
2022-12-03T15:12:08.292Z,15.20
2022-12-03T15:14:36.241Z,15.00
2022-12-03T15:17:04.252Z,14.70
2022-12-03T15:19:32.269Z,14.90
2022-12-03T15:22:00.238Z,15.30
2022-12-03T15:24:28.654Z,15.60
2022-12-03T15:26:58.055Z,15.50
2022-12-03T15:29:28.087Z,15.30
2022-12-03T15:31:56.141Z,15.10
2022-12-03T15:34:24.153Z,14.80
2022-12-03T15:36:52.967Z,14.80
2022-12-03T15:39:20.972Z,15.00
2022-12-03T15:41:49.391Z,15.20
2022-12-03T15:44:18.989Z,15.60
2022-12-03T15:46:47.012Z,15.90
2022-12-03T15:49:15.013Z,16.00
2022-12-03T15:51:42.972Z,15.80
2022-12-03T15:54:12.151Z,16.00
2022-12-03T15:56:40.551Z,16.10
2022-12-03T15:59:08.646Z,16.10
2022-12-03T16:01:38.073Z,15.80
2022-12-03T16:04:06.345Z,16.00
2022-12-03T16:06:34.342Z,16.30
2022-12-03T16:09:05.134Z,16.30
2022-12-03T16:11:33.117Z,16.60
2022-12-03T16:14:01.081Z,16.90
2022-12-03T16:16:29.134Z,17.20
2022-12-03T16:18:58.778Z,17.40
2022-12-03T16:21:27.472Z,17.40
2022-12-03T16:23:55.755Z,17.40
2022-12-03T16:26:24.593Z,17.40
2022-12-03T16:28:52.550Z,17.20
2022-12-03T16:31:21.598Z,17.10
2022-12-03T16:33:50.280Z,17.00
2022-12-03T16:36:19.620Z,16.50
2022-12-03T16:38:47.588Z,16.20
2022-12-03T16:41:19.055Z,16.20
2022-12-03T16:43:48.496Z,16.20
2022-12-03T16:46:26.915Z,16.30
2022-12-03T16:48:56.317Z,16.70
2022-12-03T16:51:30.153Z,16.60
2022-12-03T16:53:58.112Z,16.70
2022-12-03T16:56:26.387Z,16.70
2022-12-03T16:58:54.363Z,16.50
2022-12-03T17:01:23.414Z,16.70
2022-12-03T17:03:51.523Z,16.70
2022-12-03T17:06:19.461Z,16.60
2022-12-03T17:08:49.892Z,16.50
2022-12-03T17:11:19.506Z,16.30
2022-12-03T17:13:47.636Z,16.40
2022-12-03T17:16:15.724Z,16.50
2022-12-03T17:18:43.801Z,16.50
2022-12-03T17:21:11.744Z,16.60
2022-12-03T17:23:39.759Z,16.60
2022-12-03T17:26:09.084Z,16.80
2022-12-03T17:28:37.028Z,16.80
2022-12-03T17:31:05.371Z,16.90
2022-12-03T17:33:33.389Z,16.90
2022-12-03T17:36:01.800Z,17.00
2022-12-03T17:38:34.096Z,17.20
2022-12-03T17:41:07.313Z,17.40
2022-12-03T17:43:36.836Z,17.10
2022-12-03T17:46:06.571Z,17.10
2022-12-03T17:48:37.103Z,17.20
2022-12-03T17:51:05.480Z,17.00
2022-12-03T17:53:33.452Z,17.20
2022-12-03T17:56:01.429Z,17.10
2022-12-03T17:58:29.397Z,17.30
2022-12-03T18:01:02.396Z,17.40
2022-12-03T18:03:31.158Z,17.50
2022-12-03T18:05:59.149Z,17.70
2022-12-03T18:08:27.099Z,17.50
2022-12-03T18:10:55.657Z,17.70
2022-12-03T18:13:23.674Z,17.90
2022-12-03T18:15:51.672Z,17.90
2022-12-03T18:18:21.027Z,17.90
2022-12-03T18:20:49.095Z,17.90
2022-12-03T18:23:17.092Z,17.90
2022-12-03T18:25:45.137Z,18.00
2022-12-03T18:28:15.187Z,18.00
2022-12-03T18:30:47.489Z,18.10
2022-12-03T18:33:18.837Z,18.20
2022-12-03T18:35:54.150Z,18.20
2022-12-03T18:38:23.025Z,18.30
2022-12-03T18:40:57.754Z,18.10
2022-12-03T18:43:27.937Z,18.30
2022-12-03T18:45:55.909Z,18.10
2022-12-03T18:48:23.856Z,18.30
2022-12-03T18:50:53.230Z,18.20
2022-12-03T18:53:21.126Z,18.20
2022-12-03T18:55:49.531Z,17.90
2022-12-03T18:58:19.290Z,17.90
2022-12-03T19:00:47.368Z,17.70
2022-12-03T19:03:15.385Z,17.30
2022-12-03T19:05:43.342Z,17.50
2022-12-03T19:08:14.943Z,17.90
2022-12-03T19:10:44.163Z,17.90
2022-12-03T19:13:12.272Z,18.20
2022-12-03T19:15:40.556Z,18.20
2022-12-03T19:18:08.497Z,18.00
2022-12-03T19:20:36.500Z,18.00
2022-12-03T19:23:04.463Z,18.10
2022-12-03T19:25:33.765Z,17.70
2022-12-03T19:28:01.674Z,17.30
2022-12-03T19:30:29.598Z,17.20
2022-12-03T19:32:59.482Z,16.90
2022-12-03T19:35:27.549Z,17.30
2022-12-03T19:37:56.365Z,17.30
2022-12-03T19:40:24.326Z,17.40
2022-12-03T19:42:54.558Z,17.30
2022-12-03T19:45:22.653Z,17.30
2022-12-03T19:47:50.734Z,17.40
2022-12-03T19:50:22.966Z,17.40
2022-12-03T19:52:51.100Z,17.30
2022-12-03T19:55:20.366Z,17.20
2022-12-03T19:57:48.312Z,17.20
2022-12-03T20:00:18.208Z,17.30
2022-12-03T20:02:48.665Z,17.50
2022-12-03T20:05:16.751Z,17.50
2022-12-03T20:07:44.741Z,17.70
2022-12-03T20:10:15.746Z,17.80
2022-12-03T20:12:43.788Z,17.70
2022-12-03T20:15:12.961Z,17.80
2022-12-03T20:17:42.247Z,17.80
2022-12-03T20:20:11.090Z,18.00
2022-12-03T20:22:39.004Z,18.20
2022-12-03T20:25:07.859Z,18.20
2022-12-03T20:27:39.059Z,18.30
2022-12-03T20:30:08.245Z,18.30
2022-12-03T20:32:40.656Z,18.40
2022-12-03T20:35:13.216Z,18.30
2022-12-03T20:37:41.333Z,18.40
2022-12-03T20:40:10.350Z,18.20
2022-12-03T20:42:38.314Z,18.20
2022-12-03T20:45:07.362Z,18.50
2022-12-03T20:47:35.582Z,18.70
2022-12-03T20:50:03.591Z,18.90
2022-12-03T20:52:32.860Z,18.90
2022-12-03T20:55:00.822Z,18.80
2022-12-03T20:57:28.787Z,18.80
2022-12-03T20:59:56.859Z,18.60
2022-12-03T21:02:24.939Z,18.40
2022-12-03T21:04:54.248Z,18.40
2022-12-03T21:07:22.181Z,18.40
2022-12-03T21:09:51.816Z,18.20
2022-12-03T21:12:19.792Z,18.30
2022-12-03T21:14:47.967Z,18.30
2022-12-03T21:17:16.337Z,18.30
2022-12-03T21:19:44.353Z,18.40
2022-12-03T21:22:12.368Z,18.30
2022-12-03T21:24:42.694Z,18.40
2022-12-03T21:27:14.579Z,17.90
2022-12-03T21:29:47.721Z,17.70
2022-12-03T21:32:15.651Z,18.00
2022-12-03T21:34:43.592Z,18.10
2022-12-03T21:37:11.554Z,17.90
2022-12-03T21:39:39.479Z,17.30
2022-12-03T21:42:33.827Z,17.00
2022-12-03T21:44:56.703Z,17.00
2022-12-03T21:47:24.754Z,16.90
2022-12-03T21:49:52.896Z,17.10
2022-12-03T21:52:21.137Z,17.30
2022-12-03T21:54:49.056Z,17.50
2022-12-03T21:57:16.976Z,17.80
2022-12-03T21:59:45.015Z,18.10
2022-12-03T22:02:17.411Z,18.20
2022-12-03T22:04:49.758Z,18.10
2022-12-03T22:07:18.453Z,18.40
2022-12-03T22:09:46.449Z,18.60
2022-12-03T22:12:14.423Z,18.90
2022-12-03T22:14:42.433Z,19.00
2022-12-03T22:17:10.440Z,19.10
2022-12-03T22:19:40.141Z,19.10
2022-12-03T22:22:08.200Z,19.20
2022-12-03T22:24:36.146Z,19.30
2022-12-03T22:27:04.961Z,19.40
2022-12-03T22:29:33.079Z,19.40
2022-12-03T22:32:01.072Z,19.40
2022-12-03T22:34:29.037Z,19.50
2022-12-03T22:36:58.734Z,19.50
2022-12-03T22:39:26.715Z,19.40
2022-12-03T22:41:54.697Z,19.10
2022-12-03T22:44:23.064Z,19.10
2022-12-03T22:46:51.047Z,18.90
2022-12-03T22:49:21.329Z,18.80
2022-12-03T22:51:49.309Z,18.60
2022-12-03T22:54:23.778Z,18.50
2022-12-03T22:56:52.224Z,18.50
2022-12-03T22:59:20.186Z,18.60
2022-12-03T23:01:48.265Z,18.30
2022-12-03T23:04:16.280Z,17.90
2022-12-03T23:06:44.513Z,17.90
2022-12-03T23:09:12.546Z,17.80
2022-12-03T23:11:44.608Z,17.60
2022-12-03T23:14:12.683Z,17.60
2022-12-03T23:16:41.415Z,18.00
2022-12-03T23:19:09.501Z,18.20
2022-12-03T23:21:37.520Z,18.30
2022-12-03T23:24:06.542Z,18.40
2022-12-03T23:26:38.300Z,18.60
2022-12-03T23:29:08.449Z,18.40
2022-12-03T23:31:37.135Z,18.60
2022-12-03T23:34:05.663Z,18.50
2022-12-03T23:36:35.705Z,18.50
2022-12-03T23:39:04.077Z,18.60
2022-12-03T23:41:32.029Z,18.70
2022-12-03T23:44:00.001Z,18.70
2022-12-03T23:46:29.678Z,18.80
2022-12-03T23:48:59.818Z,18.90
2022-12-03T23:51:28.593Z,18.90
2022-12-03T23:53:57.680Z,18.80
2022-12-03T23:56:29.210Z,18.90
2022-12-03T23:58:57.645Z,19.00
